createdAt,value
2019-03-21T00:00:16.241Z,4.90
2019-03-21T00:14:15.718Z,4.67
2019-03-21T00:17:25.450Z,5.10
2019-03-21T00:20:00.022Z,5.92
2019-03-21T00:22:31.346Z,5.97
2019-03-21T00:25:07.286Z,6.12
2019-03-21T00:27:41.479Z,5.83
2019-03-21T00:30:17.833Z,5.72
2019-03-21T00:32:50.204Z,5.90
2019-03-21T00:35:20.969Z,5.75
2019-03-21T00:37:51.722Z,6.20
2019-03-21T00:40:26.202Z,5.60
2019-03-21T00:42:59.270Z,5.58
2019-03-21T00:45:30.343Z,5.45
2019-03-21T00:48:02.602Z,6.17
2019-03-21T00:50:33.370Z,6.40
2019-03-21T00:53:04.130Z,5.47
2019-03-21T00:55:40.616Z,5.00
2019-03-21T00:58:33.218Z,6.33
2019-03-21T01:01:06.130Z,5.20
2019-03-21T01:03:37.090Z,5.30
2019-03-21T01:06:07.867Z,5.70
2019-03-21T01:08:38.621Z,5.80
2019-03-21T01:11:13.797Z,5.53
2019-03-21T01:13:45.061Z,5.10
2019-03-21T01:16:15.858Z,5.30
2019-03-21T01:18:48.339Z,5.40
2019-03-21T01:21:19.141Z,4.90
2019-03-21T01:23:50.115Z,5.23
2019-03-21T01:26:21.473Z,5.50
2019-03-21T01:28:52.305Z,5.47
2019-03-21T01:31:23.093Z,5.10
2019-03-21T01:33:53.840Z,4.63
2019-03-21T01:36:24.789Z,5.97
2019-03-21T01:38:55.546Z,5.87
2019-03-21T01:41:28.361Z,5.80
2019-03-21T01:43:59.123Z,4.75
2019-03-21T01:46:30.282Z,5.50
2019-03-21T01:49:03.813Z,5.28
2019-03-21T01:51:34.671Z,4.53
2019-03-21T01:54:05.488Z,5.07
2019-03-21T01:56:36.562Z,4.03
2019-03-21T01:59:07.317Z,6.00
2019-03-21T02:01:40.429Z,5.83
2019-03-21T02:04:11.186Z,5.55
2019-03-21T02:06:45.987Z,5.60
2019-03-21T02:09:28.423Z,4.85
2019-03-21T02:11:59.198Z,5.40
2019-03-21T02:14:37.308Z,5.60
2019-03-21T02:17:09.428Z,5.40
2019-03-21T02:19:40.237Z,5.60
2019-03-21T02:22:11.327Z,5.50
2019-03-21T02:24:42.169Z,5.17
2019-03-21T02:27:13.534Z,4.60
2019-03-21T02:29:44.502Z,5.62
2019-03-21T02:32:15.281Z,5.20
2019-03-21T02:34:46.091Z,4.47
2019-03-21T02:37:16.971Z,4.47
2019-03-21T02:39:58.925Z,5.20
2019-03-21T02:42:51.369Z,5.00
2019-03-21T02:45:22.127Z,4.83
2019-03-21T02:47:55.179Z,5.00
2019-03-21T02:50:32.487Z,4.30
2019-03-21T02:54:40.754Z,4.40
2019-03-21T02:57:23.858Z,4.97
2019-03-21T03:00:11.467Z,4.92
2019-03-21T03:02:42.323Z,5.00
2019-03-21T03:05:19.741Z,4.07
2019-03-21T03:07:51.121Z,4.70
2019-03-21T03:10:36.697Z,5.65
2019-03-21T03:13:07.520Z,5.90
2019-03-21T03:15:41.500Z,5.20
2019-03-21T03:18:15.645Z,5.67
2019-03-21T03:20:46.589Z,5.20
2019-03-21T03:23:17.374Z,5.43
2019-03-21T03:25:50.866Z,4.87
2019-03-21T03:28:31.723Z,5.00
2019-03-21T03:31:02.493Z,5.60
2019-03-21T03:33:36.862Z,5.03
2019-03-21T03:36:08.580Z,4.80
2019-03-21T03:38:39.837Z,4.87
2019-03-21T03:41:18.001Z,4.75
2019-03-21T03:43:52.949Z,4.90
2019-03-21T03:46:33.531Z,4.65
2019-03-21T03:49:04.707Z,5.00
2019-03-21T03:52:02.167Z,4.78
2019-03-21T03:54:41.126Z,4.55
2019-03-21T03:57:20.877Z,4.83
2019-03-21T04:00:19.108Z,5.00
2019-03-21T04:03:26.785Z,5.85
2019-03-21T04:07:57.829Z,5.35
2019-03-21T04:10:39.236Z,5.22
2019-03-21T04:13:12.097Z,4.90
2019-03-21T04:16:15.654Z,5.10
2019-03-21T04:18:46.528Z,5.78
2019-03-21T04:21:20.233Z,5.70
2019-03-21T04:24:52.137Z,5.72
2019-03-21T04:27:25.273Z,5.20
2019-03-21T04:29:56.104Z,5.72
2019-03-21T04:32:27.261Z,5.27
2019-03-21T04:34:58.026Z,5.12
2019-03-21T04:37:28.783Z,4.97
2019-03-21T04:39:59.680Z,5.07
2019-03-21T04:42:32.493Z,5.00
2019-03-21T04:45:10.209Z,5.47
2019-03-21T04:47:41.146Z,5.42
2019-03-21T04:50:39.929Z,5.13
2019-03-21T04:53:14.059Z,4.78
2019-03-21T04:56:14.997Z,4.65
2019-03-21T04:58:49.534Z,4.15
2019-03-21T05:01:20.674Z,4.37
2019-03-21T05:03:58.341Z,4.30
2019-03-21T05:06:29.111Z,4.55
2019-03-21T05:09:10.403Z,4.47
2019-03-21T05:14:23.673Z,4.87
2019-03-21T05:16:54.685Z,4.50
2019-03-21T05:19:25.684Z,5.87
2019-03-21T05:23:18.920Z,4.50
2019-03-21T05:26:29.774Z,5.37
2019-03-21T05:29:02.619Z,5.10
2019-03-21T05:32:04.138Z,5.30
2019-03-21T05:34:34.934Z,4.83
2019-03-21T05:37:12.384Z,4.50
2019-03-21T05:39:46.459Z,5.22
2019-03-21T05:43:15.968Z,4.50
2019-03-21T05:45:55.308Z,4.40
2019-03-21T05:48:30.698Z,4.22
2019-03-21T05:51:04.625Z,4.45
2019-03-21T05:53:39.338Z,4.72
2019-03-21T05:56:12.874Z,4.85
2019-03-21T05:58:55.096Z,5.17
2019-03-21T06:01:26.250Z,6.03
2019-03-21T06:04:01.508Z,5.10
2019-03-21T06:06:41.193Z,4.80
2019-03-21T06:09:20.101Z,4.78
2019-03-21T06:12:12.189Z,4.25
2019-03-21T06:15:00.380Z,5.05
2019-03-21T06:17:36.181Z,4.85
2019-03-21T06:21:57.397Z,5.37
2019-03-21T06:25:18.620Z,4.67
2019-03-21T06:28:33.285Z,5.50
2019-03-21T06:31:36.998Z,4.40
2019-03-21T06:34:19.662Z,4.95
2019-03-21T06:38:11.849Z,5.25
2019-03-21T06:46:10.098Z,5.47
2019-03-21T06:48:45.884Z,4.58
2019-03-21T06:51:25.594Z,4.37
2019-03-21T06:57:33.193Z,4.87
2019-03-21T07:00:06.366Z,4.55
2019-03-21T07:02:37.174Z,5.00
2019-03-21T07:05:08.148Z,5.33
2019-03-21T07:07:38.918Z,4.80
2019-03-21T07:10:09.983Z,5.80
2019-03-21T07:12:40.742Z,5.15
2019-03-21T07:15:11.711Z,4.60
2019-03-21T07:17:42.478Z,5.70
2019-03-21T07:20:13.342Z,4.30
2019-03-21T07:22:44.107Z,4.87
2019-03-21T07:25:14.880Z,4.10
2019-03-21T07:27:45.643Z,4.87
2019-03-21T07:30:37.256Z,5.20
2019-03-21T07:34:39.958Z,5.47
2019-03-21T07:37:10.719Z,4.50
2019-03-21T07:39:41.496Z,4.90
2019-03-21T07:42:12.251Z,4.80
2019-03-21T07:44:43.014Z,5.77
2019-03-21T07:47:14.385Z,5.30
2019-03-21T07:49:45.331Z,4.70
2019-03-21T07:52:16.147Z,5.07
2019-03-21T07:54:48.526Z,5.03
2019-03-21T07:57:20.638Z,4.78
2019-03-21T07:59:52.001Z,5.15
2019-03-21T08:02:25.886Z,4.75
2019-03-21T08:04:57.430Z,4.70
2019-03-21T08:07:28.726Z,4.85
2019-03-21T08:09:59.508Z,4.97
2019-03-21T08:12:31.226Z,4.83
2019-03-21T08:15:15.917Z,5.85
2019-03-21T08:17:46.677Z,5.20
2019-03-21T08:20:17.448Z,4.70
2019-03-21T08:22:48.226Z,4.67
2019-03-21T08:25:18.996Z,5.43
2019-03-21T08:27:51.726Z,5.00
2019-03-21T08:30:26.135Z,4.97
2019-03-21T08:32:56.906Z,5.30
2019-03-21T08:35:27.681Z,4.83
2019-03-21T08:37:58.453Z,4.47
2019-03-21T08:40:29.218Z,5.57
2019-03-21T08:42:59.981Z,4.87
2019-03-21T08:45:30.749Z,4.70
2019-03-21T08:48:01.506Z,4.67
2019-03-21T08:50:32.560Z,5.30
2019-03-21T08:53:03.328Z,4.92
2019-03-21T08:55:34.104Z,5.57
2019-03-21T08:58:04.863Z,4.80
2019-03-21T09:00:35.636Z,4.90
2019-03-21T09:03:06.393Z,5.63
2019-03-21T09:05:37.163Z,5.63
2019-03-21T09:08:07.919Z,5.13
2019-03-21T09:10:38.766Z,5.10
2019-03-21T09:13:09.517Z,5.03
2019-03-21T09:15:40.308Z,5.60
2019-03-21T09:18:11.080Z,5.10
2019-03-21T09:20:41.870Z,4.93
2019-03-21T09:23:12.632Z,5.77
2019-03-21T09:25:43.397Z,6.20
2019-03-21T09:28:14.443Z,5.23
2019-03-21T09:30:45.346Z,5.05
2019-03-21T09:33:16.163Z,5.97
2019-03-21T09:35:46.934Z,5.00
2019-03-21T09:38:17.693Z,5.23
2019-03-21T09:40:48.471Z,5.57
2019-03-21T09:43:19.374Z,4.73
2019-03-21T09:45:50.140Z,5.70
2019-03-21T09:48:20.893Z,6.10
2019-03-21T09:50:51.658Z,6.20
2019-03-21T09:53:22.413Z,5.77
2019-03-21T09:55:53.879Z,5.57
2019-03-21T09:58:24.700Z,5.60
2019-03-21T10:00:55.473Z,5.40
2019-03-21T10:03:26.265Z,5.80
2019-03-21T10:05:57.137Z,6.40
2019-03-21T10:08:27.932Z,5.67
2019-03-21T10:10:58.705Z,6.17
2019-03-21T10:13:29.525Z,5.93
2019-03-21T10:16:00.358Z,6.30
2019-03-21T10:18:31.133Z,5.70
2019-03-21T10:21:01.892Z,6.20
2019-03-21T10:23:32.649Z,6.53
2019-03-21T10:26:03.526Z,6.17
2019-03-21T10:28:34.325Z,6.57
2019-03-21T10:31:05.298Z,7.73
2019-03-21T10:33:36.057Z,5.40
2019-03-21T10:36:06.845Z,4.53
2019-03-21T10:38:37.770Z,4.53
2019-03-21T10:41:08.642Z,4.90
2019-03-21T10:43:39.402Z,5.33
2019-03-21T10:46:10.176Z,6.00
2019-03-21T10:48:40.949Z,5.77
2019-03-21T10:51:11.753Z,4.83
2019-03-21T10:53:42.516Z,5.43
2019-03-21T10:56:13.285Z,5.43
2019-03-21T10:58:44.049Z,5.30
2019-03-21T11:01:14.826Z,4.93
2019-03-21T11:03:45.577Z,5.63
2019-03-21T11:06:16.345Z,4.70
2019-03-21T11:08:47.200Z,4.87
2019-03-21T11:11:17.966Z,4.80
2019-03-21T11:13:48.721Z,5.10
2019-03-21T11:16:19.524Z,5.93
2019-03-21T11:18:50.277Z,5.50
2019-03-21T11:21:21.042Z,5.10
2019-03-21T11:23:51.807Z,5.57
2019-03-21T11:26:22.573Z,4.90
2019-03-21T11:28:53.334Z,4.80
2019-03-21T11:31:24.130Z,5.93
2019-03-21T11:33:54.885Z,5.40
2019-03-21T11:36:37.291Z,5.10
2019-03-21T11:38:58.546Z,5.27
2019-03-21T11:41:29.340Z,5.90
2019-03-21T11:44:00.103Z,5.83
2019-03-21T11:46:30.864Z,5.50
2019-03-21T11:49:01.636Z,5.07
2019-03-21T11:51:32.393Z,6.00
2019-03-21T11:54:03.499Z,5.07
2019-03-21T11:56:34.663Z,6.10
2019-03-21T11:59:05.501Z,6.50
2019-03-21T12:01:36.297Z,5.33
2019-03-21T12:04:07.158Z,5.20
2019-03-21T12:06:37.909Z,5.27
2019-03-21T12:09:08.674Z,5.27
2019-03-21T12:11:39.437Z,5.00
2019-03-21T12:14:10.222Z,4.63
2019-03-21T12:16:40.982Z,5.17
2019-03-21T12:19:14.836Z,4.60
2019-03-21T12:21:45.598Z,5.80
2019-03-21T12:24:16.373Z,6.17
2019-03-21T12:26:47.221Z,5.10
2019-03-21T12:29:17.994Z,5.77
2019-03-21T12:31:48.761Z,5.33
2019-03-21T12:34:19.528Z,4.53
2019-03-21T12:36:51.402Z,4.90
2019-03-21T12:39:22.406Z,4.80
2019-03-21T12:41:53.167Z,4.70
2019-03-21T12:44:24.010Z,5.20
2019-03-21T12:46:54.768Z,8.10
2019-03-21T12:49:25.592Z,6.03
2019-03-21T12:51:57.435Z,5.57
2019-03-21T12:54:28.277Z,5.20
2019-03-21T12:56:59.102Z,5.40
2019-03-21T12:59:29.875Z,5.20
2019-03-21T13:02:00.672Z,5.77
2019-03-21T13:04:31.554Z,5.43
2019-03-21T13:07:02.317Z,4.70
2019-03-21T13:09:33.189Z,4.77
2019-03-21T13:12:03.951Z,4.97
2019-03-21T13:14:34.729Z,5.00
2019-03-21T13:17:05.489Z,5.20
2019-03-21T13:19:36.257Z,4.43
2019-03-21T13:22:07.015Z,4.73
2019-03-21T13:24:37.778Z,4.97
2019-03-21T13:27:08.557Z,4.73
2019-03-21T13:29:39.424Z,4.90
2019-03-21T13:32:10.170Z,4.63
2019-03-21T13:34:40.933Z,4.90
2019-03-21T13:37:11.699Z,4.90
2019-03-21T13:39:42.526Z,4.83
2019-03-21T13:42:13.243Z,4.93
2019-03-21T13:44:44.005Z,5.30
2019-03-21T13:47:14.810Z,5.17
2019-03-21T13:49:45.666Z,5.37
2019-03-21T13:52:16.483Z,5.60
2019-03-21T13:54:47.250Z,5.83
2019-03-21T13:57:18.063Z,4.87
2019-03-21T13:59:48.839Z,5.13
2019-03-21T14:02:19.593Z,5.70
2019-03-21T14:04:50.360Z,5.33
2019-03-21T14:07:21.118Z,5.50
2019-03-21T14:09:51.881Z,6.10
2019-03-21T14:12:22.773Z,6.27
2019-03-21T14:14:53.631Z,6.13
2019-03-21T14:17:24.639Z,5.37
2019-03-21T14:19:55.486Z,5.83
2019-03-21T14:22:26.294Z,5.63
2019-03-21T14:24:57.130Z,5.70
2019-03-21T14:27:27.946Z,5.10
2019-03-21T14:30:01.853Z,6.40
2019-03-21T14:32:31.526Z,5.73
2019-03-21T14:35:04.654Z,6.17
2019-03-21T14:37:35.513Z,6.47
2019-03-21T14:40:09.429Z,5.53
2019-03-21T14:42:40.741Z,6.30
2019-03-21T14:45:13.903Z,5.70
2019-03-21T14:47:44.814Z,5.13
2019-03-21T14:50:15.837Z,6.33
2019-03-21T14:52:46.663Z,5.30
2019-03-21T14:55:17.482Z,5.50
2019-03-21T14:57:48.318Z,4.73
2019-03-21T15:00:19.168Z,4.47
2019-03-21T15:02:49.979Z,4.23
2019-03-21T15:05:20.813Z,4.10
2019-03-21T15:07:52.537Z,3.90
2019-03-21T15:10:23.430Z,3.83
2019-03-21T15:12:54.246Z,3.90
2019-03-21T15:15:25.187Z,4.30
2019-03-21T15:17:58.539Z,5.17
2019-03-21T15:20:28.814Z,4.63
2019-03-21T15:22:59.631Z,5.83
2019-03-21T15:25:30.544Z,5.00
2019-03-21T15:28:01.618Z,4.87
2019-03-21T15:30:32.499Z,5.23
2019-03-21T15:33:03.434Z,5.17
2019-03-21T15:35:34.239Z,4.73
2019-03-21T15:38:05.052Z,4.00
2019-03-21T15:40:35.903Z,4.30
2019-03-21T15:43:06.716Z,4.07
2019-03-21T15:45:37.545Z,4.57
2019-03-21T15:48:08.371Z,4.40
2019-03-21T15:50:39.182Z,4.57
2019-03-21T15:53:09.989Z,4.43
2019-03-21T15:55:40.825Z,4.10
2019-03-21T15:58:11.748Z,3.90
2019-03-21T16:00:42.974Z,4.17
2019-03-21T16:03:13.805Z,3.40
2019-03-21T16:05:44.641Z,4.60
2019-03-21T16:08:15.473Z,3.30
2019-03-21T16:10:46.293Z,3.03
2019-03-21T16:13:17.107Z,4.07
2019-03-21T16:15:47.958Z,3.60
2019-03-21T16:18:18.792Z,3.23
2019-03-21T16:20:49.567Z,3.67
2019-03-21T16:23:20.389Z,4.10
2019-03-21T16:25:51.240Z,2.90
2019-03-21T16:28:22.063Z,3.20
2019-03-21T16:30:52.926Z,3.17
2019-03-21T16:33:23.739Z,3.30
2019-03-21T16:35:54.505Z,3.10
2019-03-21T16:38:25.312Z,2.70
2019-03-21T16:40:56.153Z,3.20
2019-03-21T16:43:26.912Z,2.90
2019-03-21T16:45:57.727Z,3.70
2019-03-21T16:48:28.558Z,3.57
2019-03-21T16:50:59.400Z,3.70
2019-03-21T16:53:30.228Z,3.50
2019-03-21T16:56:01.091Z,3.70
2019-03-21T16:58:31.915Z,3.67
2019-03-21T17:01:02.759Z,4.03
2019-03-21T17:03:33.669Z,4.03
2019-03-21T17:06:04.497Z,3.30
2019-03-21T17:08:35.321Z,3.80
2019-03-21T17:11:06.240Z,3.23
2019-03-21T17:13:37.132Z,4.10
2019-03-21T17:16:07.982Z,3.53
2019-03-21T17:18:38.811Z,3.13
2019-03-21T17:21:09.923Z,3.27
2019-03-21T17:23:40.795Z,3.57
2019-03-21T17:26:11.642Z,3.47
2019-03-21T17:28:42.457Z,3.80
2019-03-21T17:31:13.300Z,3.63
2019-03-21T17:33:44.129Z,3.20
2019-03-21T17:36:14.937Z,3.57
2019-03-21T17:38:45.770Z,4.23
2019-03-21T17:41:16.587Z,3.90
2019-03-21T17:43:47.707Z,3.50
2019-03-21T17:46:18.610Z,4.30
2019-03-21T17:48:49.441Z,4.53
2019-03-21T17:51:20.241Z,4.03
2019-03-21T17:53:51.167Z,4.40
2019-03-21T17:56:21.988Z,3.70
2019-03-21T17:58:52.803Z,3.80
2019-03-21T18:01:23.628Z,3.70
2019-03-21T18:03:54.476Z,4.13
2019-03-21T18:06:25.326Z,3.93
2019-03-21T18:08:56.175Z,3.60
2019-03-21T18:11:26.985Z,3.50
2019-03-21T18:13:57.807Z,3.53
2019-03-21T18:16:28.635Z,4.30
2019-03-21T18:18:59.478Z,3.63
2019-03-21T18:21:30.296Z,4.00
2019-03-21T18:24:01.101Z,3.77
2019-03-21T18:26:31.915Z,3.70
2019-03-21T18:29:02.819Z,4.00
2019-03-21T18:31:33.651Z,3.63
2019-03-21T18:34:04.484Z,4.13
2019-03-21T18:36:35.313Z,4.47
2019-03-21T18:39:06.243Z,4.17
2019-03-21T18:41:37.051Z,4.30
2019-03-21T18:44:07.872Z,3.90
2019-03-21T18:46:38.656Z,3.60
2019-03-21T18:49:09.497Z,3.60
2019-03-21T18:51:40.311Z,3.53
2019-03-21T18:54:11.143Z,3.53
2019-03-21T18:56:41.970Z,4.57
2019-03-21T18:59:12.799Z,4.60
2019-03-21T19:01:43.619Z,3.90
2019-03-21T19:04:14.454Z,3.67
2019-03-21T19:06:45.293Z,3.50
2019-03-21T19:09:16.102Z,4.00
2019-03-21T19:11:46.913Z,3.10
2019-03-21T19:14:17.735Z,3.87
2019-03-21T19:16:48.547Z,4.30
2019-03-21T19:19:19.383Z,4.20
2019-03-21T19:21:50.479Z,4.33
2019-03-21T19:24:21.336Z,4.47
2019-03-21T19:26:52.173Z,4.20
2019-03-21T19:29:23.028Z,4.80
2019-03-21T19:31:53.839Z,5.23
2019-03-21T19:34:24.677Z,4.73
2019-03-21T19:36:55.503Z,4.50
2019-03-21T19:39:26.341Z,4.70
2019-03-21T19:41:57.159Z,4.70
2019-03-21T19:44:27.987Z,4.73
2019-03-21T19:47:01.375Z,4.70
2019-03-21T19:49:31.556Z,4.95
2019-03-21T19:52:02.462Z,4.97
2019-03-21T19:54:33.298Z,5.43
2019-03-21T19:57:04.109Z,5.47
2019-03-21T19:59:34.967Z,6.17
2019-03-21T20:02:05.794Z,5.60
2019-03-21T20:04:36.628Z,4.77
2019-03-21T20:07:07.446Z,5.80
2019-03-21T20:09:38.270Z,5.23
2019-03-21T20:12:09.120Z,5.40
2019-03-21T20:14:39.937Z,5.17
2019-03-21T20:17:10.758Z,5.77
2019-03-21T20:19:41.544Z,6.07
2019-03-21T20:22:12.337Z,5.60
2019-03-21T20:24:43.111Z,5.00
2019-03-21T20:27:13.887Z,6.17
2019-03-21T20:29:44.706Z,6.07
2019-03-21T20:32:20.578Z,5.97
2019-03-21T20:34:48.209Z,5.50
2019-03-21T20:37:18.975Z,5.77
2019-03-21T20:39:49.763Z,6.30
2019-03-21T20:42:20.523Z,5.13
2019-03-21T20:44:51.304Z,5.83
2019-03-21T20:47:22.071Z,6.10
2019-03-21T20:49:52.848Z,5.53
2019-03-21T20:52:23.607Z,5.67
2019-03-21T20:54:54.370Z,5.30
2019-03-21T20:57:25.134Z,5.27
2019-03-21T20:59:55.898Z,5.87
2019-03-21T21:02:26.658Z,7.03
2019-03-21T21:04:57.425Z,5.70
2019-03-21T21:07:28.181Z,5.93
2019-03-21T21:09:59.012Z,5.80
2019-03-21T21:12:29.769Z,5.53
2019-03-21T21:15:00.748Z,5.50
2019-03-21T21:17:31.494Z,6.03
2019-03-21T21:20:05.010Z,5.87
2019-03-21T21:22:35.840Z,5.10
2019-03-21T21:25:07.746Z,5.70
2019-03-21T21:27:48.625Z,5.87
2019-03-21T21:30:21.021Z,6.22
2019-03-21T21:32:51.909Z,6.15
2019-03-21T21:35:22.789Z,6.23
2019-03-21T21:37:53.751Z,5.67
2019-03-21T21:40:24.647Z,6.20
2019-03-21T21:42:55.520Z,5.40
2019-03-21T21:45:26.288Z,6.30
2019-03-21T21:47:57.038Z,6.63
2019-03-21T21:50:27.805Z,7.17
2019-03-21T21:52:58.561Z,6.30
2019-03-21T21:55:29.330Z,6.53
2019-03-21T21:58:00.091Z,7.03
2019-03-21T22:00:30.864Z,6.40
2019-03-21T22:03:01.629Z,7.33
2019-03-21T22:05:32.396Z,6.20
2019-03-21T22:08:03.206Z,6.70
2019-03-21T22:10:33.971Z,6.60
2019-03-21T22:13:04.726Z,6.73
2019-03-21T22:15:35.493Z,7.17
2019-03-21T22:18:06.251Z,7.37
2019-03-21T22:20:37.018Z,7.07
2019-03-21T22:23:07.779Z,6.53
2019-03-21T22:25:38.546Z,6.13
2019-03-21T22:28:10.276Z,6.90
2019-03-21T22:30:41.191Z,6.80
2019-03-21T22:33:11.954Z,6.33
2019-03-21T22:35:42.721Z,6.60
2019-03-21T22:38:13.481Z,6.17
2019-03-21T22:40:44.245Z,5.93
2019-03-21T22:43:15.003Z,6.60
2019-03-21T22:45:45.778Z,6.87
2019-03-21T22:48:16.584Z,6.17
2019-03-21T22:50:47.348Z,5.73
2019-03-21T22:53:18.102Z,6.53
2019-03-21T22:55:48.867Z,6.57
2019-03-21T22:58:31.212Z,7.07
2019-03-21T23:00:53.110Z,7.50
2019-03-21T23:03:23.866Z,7.10
2019-03-21T23:05:54.637Z,6.17
2019-03-21T23:08:25.397Z,6.60
2019-03-21T23:10:56.162Z,7.60
2019-03-21T23:13:26.917Z,7.37
2019-03-21T23:15:57.699Z,6.73
2019-03-21T23:18:28.452Z,6.27
2019-03-21T23:20:59.227Z,5.17
2019-03-21T23:23:29.984Z,5.33
2019-03-21T23:26:00.754Z,5.77
2019-03-21T23:28:31.516Z,5.53
2019-03-21T23:31:02.296Z,5.70
2019-03-21T23:33:33.051Z,5.60
2019-03-21T23:36:03.824Z,6.37
2019-03-21T23:38:34.578Z,6.57
2019-03-21T23:41:05.353Z,5.80
2019-03-21T23:43:36.106Z,6.00
2019-03-21T23:46:06.874Z,6.33
2019-03-21T23:48:37.634Z,5.70
2019-03-21T23:51:08.395Z,6.57
2019-03-21T23:53:39.153Z,5.70
2019-03-21T23:56:10.204Z,5.60
2019-03-21T23:58:40.978Z,6.15
